createdAt,value
2019-02-04T00:02:03.208Z,-1.47
2019-02-04T00:04:32.108Z,-1.10
2019-02-04T00:07:00.984Z,-1.07
2019-02-04T00:09:30.245Z,-1.14
2019-02-04T00:11:59.318Z,-1.02
2019-02-04T00:14:28.382Z,-1.16
2019-02-04T00:16:57.204Z,-1.13
2019-02-04T00:19:26.112Z,-1.15
2019-02-04T00:21:55.048Z,-1.07
2019-02-04T00:24:23.993Z,-1.18
2019-02-04T00:26:53.316Z,-1.17
2019-02-04T00:29:22.118Z,-1.14
2019-02-04T00:31:51.180Z,-1.13
2019-02-04T00:34:20.250Z,-1.31
2019-02-04T00:36:49.315Z,-1.29
2019-02-04T00:39:18.341Z,-1.27
2019-02-04T00:41:47.185Z,-1.31
2019-02-04T00:44:16.039Z,-1.68
2019-02-04T00:46:52.080Z,-1.40
2019-02-04T00:49:15.438Z,-1.46
2019-02-04T00:51:44.268Z,-1.48
2019-02-04T00:54:13.442Z,-1.55
2019-02-04T00:56:42.331Z,-1.63
2019-02-04T00:59:11.482Z,-1.63
2019-02-04T01:01:40.713Z,-1.63
2019-02-04T01:04:09.884Z,-1.62
2019-02-04T01:06:38.779Z,-1.67
2019-02-04T01:09:09.925Z,-1.83
2019-02-04T01:11:38.780Z,-1.78
2019-02-04T01:14:07.959Z,-1.80
2019-02-04T01:16:37.023Z,-1.79
2019-02-04T01:19:06.272Z,-1.72
2019-02-04T01:21:35.507Z,-1.82
2019-02-04T01:24:04.624Z,-1.76
2019-02-04T01:26:33.498Z,-1.85
2019-02-04T01:29:02.334Z,-1.87
2019-02-04T01:31:31.298Z,-1.80
2019-02-04T01:34:10.313Z,-1.71
2019-02-04T01:36:39.473Z,-1.76
2019-02-04T01:39:09.732Z,-1.78
2019-02-04T01:41:38.834Z,-1.82
2019-02-04T01:44:08.059Z,-1.88
2019-02-04T01:46:36.866Z,-1.95
2019-02-04T01:49:05.790Z,-2.08
2019-02-04T01:51:34.709Z,-1.95
2019-02-04T01:54:03.645Z,-2.03
2019-02-04T01:56:32.476Z,-1.98
2019-02-04T01:59:01.318Z,-2.01
2019-02-04T02:01:30.159Z,-2.07
2019-02-04T02:03:59.269Z,-2.13
2019-02-04T02:06:28.376Z,-2.13
2019-02-04T02:08:57.150Z,-2.06
2019-02-04T02:11:26.003Z,-1.99
2019-02-04T02:13:54.816Z,-2.08
2019-02-04T02:16:23.762Z,-2.09
2019-02-04T02:18:52.619Z,-2.16
2019-02-04T02:21:21.657Z,-2.12
2019-02-04T02:23:50.450Z,-2.28
2019-02-04T02:26:19.481Z,-2.33
2019-02-04T02:28:48.576Z,-2.24
2019-02-04T02:31:17.468Z,-2.57
2019-02-04T02:33:46.608Z,-2.38
2019-02-04T02:36:15.444Z,-2.36
2019-02-04T02:38:44.257Z,-2.41
2019-02-04T02:41:13.491Z,-2.38
2019-02-04T02:43:42.789Z,-2.42
2019-02-04T02:46:11.579Z,-2.43
2019-02-04T02:48:40.754Z,-2.35
2019-02-04T02:51:09.505Z,-2.27
2019-02-04T02:53:38.770Z,-2.34
2019-02-04T02:56:07.711Z,-2.42
2019-02-04T02:58:36.678Z,-2.27
2019-02-04T03:01:05.552Z,-2.55
2019-02-04T03:03:34.467Z,-2.45
2019-02-04T03:06:03.432Z,-2.45
2019-02-04T03:08:32.876Z,-2.38
2019-02-04T03:11:01.752Z,-2.33
2019-02-04T03:13:30.627Z,-2.37
2019-02-04T03:15:59.485Z,-2.29
2019-02-04T03:18:28.410Z,-2.24
2019-02-04T03:20:57.197Z,-2.13
2019-02-04T03:23:26.046Z,-2.22
2019-02-04T03:25:54.872Z,-2.13
2019-02-04T03:28:24.018Z,-2.10
2019-02-04T03:30:53.288Z,-2.05
2019-02-04T03:33:22.705Z,-2.09
2019-02-04T03:35:51.641Z,-2.07
2019-02-04T03:38:21.119Z,-2.11
2019-02-04T03:40:50.411Z,-2.15
2019-02-04T03:43:19.266Z,-2.17
2019-02-04T03:45:48.088Z,-2.06
2019-02-04T03:48:17.308Z,-2.16
2019-02-04T03:50:46.509Z,-2.13
2019-02-04T03:53:15.886Z,-2.09
2019-02-04T03:55:44.723Z,-2.07
2019-02-04T03:58:13.789Z,-2.13
2019-02-04T04:00:42.956Z,-2.08
2019-02-04T04:03:11.935Z,-2.11
2019-02-04T04:05:40.834Z,-2.08
2019-02-04T04:08:09.777Z,-2.09
2019-02-04T04:10:38.595Z,-2.10
2019-02-04T04:13:07.837Z,-2.08
2019-02-04T04:15:36.829Z,-2.05
2019-02-04T04:18:15.441Z,-2.04
2019-02-04T04:20:36.755Z,-2.05
2019-02-04T04:23:05.885Z,-2.04
2019-02-04T04:25:34.706Z,-1.98
2019-02-04T04:28:03.728Z,-2.07
2019-02-04T04:30:32.632Z,-1.98
2019-02-04T04:33:01.746Z,-1.95
2019-02-04T04:35:30.547Z,-1.92
2019-02-04T04:37:59.940Z,-1.92
2019-02-04T04:40:28.815Z,-1.90
2019-02-04T04:42:58.357Z,-1.87
2019-02-04T04:45:28.073Z,-1.84
2019-02-04T04:47:57.448Z,-1.81
2019-02-04T04:50:26.402Z,-1.76
2019-02-04T04:52:55.303Z,-1.76
2019-02-04T04:55:25.753Z,-1.75
2019-02-04T04:57:55.313Z,-1.70
2019-02-04T05:00:27.427Z,-1.68
2019-02-04T05:02:56.435Z,-1.64
2019-02-04T05:05:25.328Z,-1.61
2019-02-04T05:07:54.523Z,-1.59
2019-02-04T05:10:23.484Z,-1.58
2019-02-04T05:12:52.412Z,-1.59
2019-02-04T05:15:23.767Z,-1.58
2019-02-04T05:17:53.190Z,-1.54
2019-02-04T05:20:22.939Z,-1.52
2019-02-04T05:22:51.853Z,-1.50
2019-02-04T05:25:20.888Z,-1.51
2019-02-04T05:27:49.868Z,-1.50
2019-02-04T05:30:20.577Z,-1.47
2019-02-04T05:32:49.674Z,-1.45
2019-02-04T05:35:18.642Z,-1.44
2019-02-04T05:37:47.477Z,-1.39
2019-02-04T05:40:16.928Z,-1.38
2019-02-04T05:42:46.301Z,-1.37
2019-02-04T05:45:16.653Z,-1.34
2019-02-04T05:47:45.866Z,-1.29
2019-02-04T05:50:17.397Z,-1.26
2019-02-04T05:52:46.894Z,-1.23
2019-02-04T05:55:16.848Z,-1.26
2019-02-04T05:57:45.747Z,-1.21
2019-02-04T06:00:22.108Z,-1.25
2019-02-04T06:02:51.300Z,-1.19
2019-02-04T06:05:22.711Z,-1.23
2019-02-04T06:07:52.565Z,-1.21
2019-02-04T06:10:21.442Z,-1.18
2019-02-04T06:12:50.547Z,-1.19
2019-02-04T06:15:19.432Z,-1.15
2019-02-04T06:17:59.907Z,-1.16
2019-02-04T06:20:29.012Z,-1.16
2019-02-04T06:22:57.744Z,-1.12
2019-02-04T06:25:26.731Z,-1.08
2019-02-04T06:27:55.590Z,-1.05
2019-02-04T06:30:24.529Z,-1.07
2019-02-04T06:32:53.407Z,-1.08
2019-02-04T06:35:22.492Z,-1.05
2019-02-04T06:37:52.458Z,-0.99
2019-02-04T06:40:21.401Z,-1.01
2019-02-04T06:42:50.605Z,-0.96
2019-02-04T06:45:19.598Z,-0.94
2019-02-04T06:47:48.515Z,-0.94
2019-02-04T06:50:17.892Z,-0.93
2019-02-04T06:52:46.905Z,-0.93
2019-02-04T06:55:18.475Z,-0.91
2019-02-04T06:57:47.442Z,-0.92
2019-02-04T07:00:16.927Z,-0.89
2019-02-04T07:02:46.259Z,-0.85
2019-02-04T07:05:15.440Z,-0.86
2019-02-04T07:07:44.278Z,-0.85
2019-02-04T07:10:15.647Z,-0.86
2019-02-04T07:12:44.707Z,-0.80
2019-02-04T07:15:13.652Z,-0.79
2019-02-04T07:17:42.669Z,-0.76
2019-02-04T07:20:18.074Z,-0.73
2019-02-04T07:22:46.942Z,-0.74
2019-02-04T07:25:16.215Z,-0.69
2019-02-04T07:27:46.213Z,-0.70
2019-02-04T07:30:24.747Z,-0.64
2019-02-04T07:32:54.185Z,-0.62
2019-02-04T07:35:23.122Z,-0.62
2019-02-04T07:37:52.042Z,-0.61
2019-02-04T07:40:26.160Z,-0.62
2019-02-04T07:42:58.274Z,-0.60
2019-02-04T07:45:27.446Z,-0.54
2019-02-04T07:47:56.320Z,-0.51
2019-02-04T07:50:25.370Z,-0.45
2019-02-04T07:53:06.529Z,-0.46
2019-02-04T07:55:35.569Z,-0.43
2019-02-04T07:58:04.505Z,-0.42
2019-02-04T08:00:33.979Z,-0.38
2019-02-04T08:03:03.207Z,-0.35
2019-02-04T08:05:34.421Z,-0.34
2019-02-04T08:08:03.458Z,-0.33
2019-02-04T08:10:32.493Z,-0.28
2019-02-04T08:13:02.238Z,-0.26
2019-02-04T08:15:33.841Z,-0.15
2019-02-04T08:18:02.847Z,-0.13
2019-02-04T08:20:32.043Z,-0.11
2019-02-04T08:23:00.985Z,0.13
2019-02-04T08:25:29.848Z,0.16
2019-02-04T08:28:00.338Z,0.27
2019-02-04T08:30:37.958Z,0.42
2019-02-04T08:33:06.376Z,0.58
2019-02-04T08:35:35.575Z,0.66
2019-02-04T08:38:04.517Z,0.79
2019-02-04T08:40:33.832Z,0.88
2019-02-04T08:43:02.878Z,0.96
2019-02-04T08:45:31.964Z,0.98
2019-02-04T08:48:01.097Z,1.01
2019-02-04T08:50:30.879Z,1.11
2019-02-04T08:53:02.834Z,1.17
2019-02-04T08:55:33.273Z,1.23
2019-02-04T08:58:07.635Z,1.31
2019-02-04T09:00:44.323Z,1.38
2019-02-04T09:03:16.203Z,1.39
2019-02-04T09:05:45.141Z,1.47
2019-02-04T09:08:14.287Z,1.51
2019-02-04T09:10:43.218Z,1.54
2019-02-04T09:13:12.383Z,1.57
2019-02-04T09:15:41.353Z,1.59
2019-02-04T09:18:10.508Z,1.67
2019-02-04T09:20:39.309Z,1.61
2019-02-04T09:23:08.351Z,1.68
2019-02-04T09:25:37.270Z,1.66
2019-02-04T09:28:06.255Z,1.65
2019-02-04T09:30:35.500Z,1.66
2019-02-04T09:33:04.391Z,1.75
2019-02-04T09:35:33.599Z,1.64
2019-02-04T09:38:02.439Z,1.91
2019-02-04T09:40:37.256Z,2.01
2019-02-04T09:43:06.928Z,1.99
2019-02-04T09:45:36.047Z,2.07
2019-02-04T09:48:06.417Z,2.18
2019-02-04T09:50:35.662Z,2.20
2019-02-04T09:53:04.921Z,2.30
2019-02-04T09:55:35.401Z,2.37
2019-02-04T09:58:04.469Z,2.45
2019-02-04T10:00:35.257Z,2.39
2019-02-04T10:03:04.344Z,2.42
2019-02-04T10:05:33.322Z,2.58
2019-02-04T10:08:02.694Z,2.51
2019-02-04T10:10:31.566Z,2.59
2019-02-04T10:13:00.872Z,2.57
2019-02-04T10:15:31.946Z,2.63
2019-02-04T10:18:00.903Z,2.72
2019-02-04T10:20:34.146Z,2.71
2019-02-04T10:23:00.686Z,2.71
2019-02-04T10:25:31.533Z,2.69
2019-02-04T10:28:00.409Z,2.72
2019-02-04T10:30:29.831Z,2.72
2019-02-04T10:32:58.717Z,2.70
2019-02-04T10:35:27.866Z,2.70
2019-02-04T10:37:57.329Z,2.73
2019-02-04T10:40:28.286Z,2.76
2019-02-04T10:43:00.207Z,2.85
2019-02-04T10:45:29.538Z,2.72
2019-02-04T10:47:58.794Z,2.75
2019-02-04T10:50:45.077Z,2.76
2019-02-04T10:53:04.478Z,2.83
2019-02-04T10:55:33.346Z,2.86
2019-02-04T10:58:02.448Z,2.89
2019-02-04T11:00:33.115Z,2.99
2019-02-04T11:03:02.440Z,2.99
2019-02-04T11:05:32.787Z,3.09
2019-02-04T11:08:01.770Z,3.14
2019-02-04T11:10:33.589Z,3.12
2019-02-04T11:13:03.216Z,3.16
2019-02-04T11:15:32.197Z,3.17
2019-02-04T11:18:01.738Z,3.18
2019-02-04T11:20:31.087Z,3.22
2019-02-04T11:23:00.809Z,3.23
2019-02-04T11:25:29.922Z,3.24
2019-02-04T11:27:58.901Z,3.26
2019-02-04T11:30:30.251Z,3.29
2019-02-04T11:32:59.336Z,3.31
2019-02-04T11:35:30.829Z,3.31
2019-02-04T11:37:59.674Z,3.31
2019-02-04T11:40:30.882Z,3.31
2019-02-04T11:43:00.146Z,3.34
2019-02-04T11:45:29.607Z,3.34
2019-02-04T11:47:58.640Z,3.35
2019-02-04T11:50:27.956Z,3.40
2019-02-04T11:52:57.014Z,3.38
2019-02-04T11:55:26.165Z,3.40
2019-02-04T11:57:55.200Z,3.46
2019-02-04T12:00:26.223Z,3.43
2019-02-04T12:02:55.848Z,3.47
2019-02-04T12:05:25.179Z,3.47
2019-02-04T12:07:54.630Z,3.49
2019-02-04T12:10:26.434Z,3.52
2019-02-04T12:12:55.674Z,3.53
2019-02-04T12:15:32.339Z,3.50
2019-02-04T12:18:01.644Z,3.55
2019-02-04T12:20:31.171Z,3.55
2019-02-04T12:23:03.784Z,3.56
2019-02-04T12:25:32.571Z,3.60
2019-02-04T12:28:01.512Z,3.57
2019-02-04T12:30:32.798Z,3.59
2019-02-04T12:33:02.234Z,3.61
2019-02-04T12:35:31.254Z,3.67
2019-02-04T12:38:00.480Z,3.69
2019-02-04T12:40:47.561Z,3.72
2019-02-04T12:43:16.579Z,3.75
2019-02-04T12:45:46.103Z,3.80
2019-02-04T12:48:15.549Z,3.77
2019-02-04T12:50:44.651Z,3.82
2019-02-04T12:53:14.042Z,3.82
2019-02-04T12:55:43.001Z,3.81
2019-02-04T12:58:12.005Z,3.80
2019-02-04T13:00:41.307Z,3.82
2019-02-04T13:03:12.407Z,3.83
2019-02-04T13:05:44.829Z,3.84
2019-02-04T13:08:13.846Z,3.89
2019-02-04T13:10:43.500Z,3.86
2019-02-04T13:13:14.712Z,3.91
2019-02-04T13:15:43.739Z,3.91
2019-02-04T13:18:12.919Z,3.92
2019-02-04T13:20:42.369Z,3.93
2019-02-04T13:23:11.251Z,3.96
2019-02-04T13:25:40.370Z,3.93
2019-02-04T13:28:12.849Z,3.92
2019-02-04T13:30:41.924Z,3.91
2019-02-04T13:33:10.862Z,3.91
2019-02-04T13:35:40.339Z,3.91
2019-02-04T13:38:09.972Z,3.88
2019-02-04T13:40:44.542Z,3.90
2019-02-04T13:43:13.222Z,3.89
2019-02-04T13:45:49.699Z,3.89
2019-02-04T13:48:45.166Z,3.89
2019-02-04T13:51:15.099Z,3.89
2019-02-04T13:53:50.975Z,3.88
2019-02-04T13:56:19.914Z,3.86
2019-02-04T13:58:48.756Z,3.87
2019-02-04T14:01:17.684Z,3.75
2019-02-04T14:03:48.413Z,3.85
2019-02-04T14:06:17.331Z,3.84
2019-02-04T14:08:46.626Z,3.85
2019-02-04T14:11:15.521Z,3.84
2019-02-04T14:13:44.425Z,3.83
2019-02-04T14:16:13.781Z,3.79
2019-02-04T14:18:42.563Z,3.76
2019-02-04T14:21:25.921Z,3.79
2019-02-04T14:23:55.337Z,3.78
2019-02-04T14:26:28.590Z,3.78
2019-02-04T14:28:56.266Z,3.77
2019-02-04T14:31:25.064Z,3.76
2019-02-04T14:33:54.127Z,3.74
2019-02-04T14:36:27.937Z,3.72
2019-02-04T14:38:57.435Z,3.72
2019-02-04T14:41:26.200Z,3.73
2019-02-04T14:44:28.620Z,3.71
2019-02-04T14:47:23.215Z,3.71
2019-02-04T14:50:17.192Z,3.72
2019-02-04T14:53:27.518Z,3.72
2019-02-04T14:56:35.581Z,3.66
2019-02-04T14:59:21.890Z,3.67
2019-02-04T15:02:44.093Z,3.66
2019-02-04T15:05:52.535Z,3.68
2019-02-04T15:08:59.265Z,3.65
2019-02-04T15:11:34.611Z,3.64
2019-02-04T15:14:36.273Z,3.65
2019-02-04T15:17:50.856Z,3.67
2019-02-04T15:21:04.142Z,3.67
2019-02-04T15:23:48.399Z,3.69
2019-02-04T15:26:52.917Z,3.68
2019-02-04T15:29:47.061Z,3.68
2019-02-04T15:33:06.562Z,3.67
2019-02-04T15:36:11.763Z,3.65
2019-02-04T15:39:14.147Z,3.65
2019-02-04T15:42:15.561Z,3.65
2019-02-04T15:45:22.571Z,3.65
2019-02-04T15:48:15.607Z,3.69
2019-02-04T15:51:20.995Z,3.67
2019-02-04T15:53:49.870Z,3.66
2019-02-04T15:56:19.300Z,3.64
2019-02-04T15:58:48.624Z,3.63
2019-02-04T16:01:17.547Z,3.61
2019-02-04T16:03:47.222Z,3.65
2019-02-04T16:06:16.380Z,3.63
2019-02-04T16:08:45.397Z,3.64
2019-02-04T16:11:14.451Z,3.60
2019-02-04T16:13:43.347Z,3.61
2019-02-04T16:16:12.218Z,3.63
2019-02-04T16:18:41.017Z,3.61
2019-02-04T16:21:09.884Z,3.60
2019-02-04T16:23:39.333Z,3.56
2019-02-04T16:26:10.367Z,3.65
2019-02-04T16:28:42.755Z,3.59
2019-02-04T16:31:10.511Z,3.56
2019-02-04T16:33:39.874Z,3.58
2019-02-04T16:36:09.057Z,3.57
2019-02-04T16:38:38.403Z,3.61
2019-02-04T16:41:07.559Z,3.60
2019-02-04T16:43:36.572Z,3.60
2019-02-04T16:46:05.632Z,3.63
2019-02-04T16:48:34.577Z,3.59
2019-02-04T16:51:11.612Z,3.59
2019-02-04T16:53:34.383Z,3.62
2019-02-04T16:56:03.259Z,3.63
2019-02-04T16:58:32.386Z,3.60
2019-02-04T17:01:01.144Z,3.63
2019-02-04T17:03:32.251Z,3.66
2019-02-04T17:06:01.616Z,3.63
2019-02-04T17:08:31.266Z,3.66
2019-02-04T17:11:00.153Z,3.63
2019-02-04T17:13:29.076Z,3.62
2019-02-04T17:15:58.120Z,3.63
2019-02-04T17:18:26.912Z,3.68
2019-02-04T17:20:55.799Z,3.72
2019-02-04T17:23:24.962Z,3.69
2019-02-04T17:25:54.199Z,3.72
2019-02-04T17:28:23.064Z,3.71
2019-02-04T17:30:53.010Z,3.69
2019-02-04T17:33:22.043Z,3.71
2019-02-04T17:35:51.188Z,3.63
2019-02-04T17:38:21.625Z,3.73
2019-02-04T17:40:50.546Z,3.73
2019-02-04T17:43:19.680Z,3.73
2019-02-04T17:45:48.590Z,3.74
2019-02-04T17:48:17.512Z,3.73
2019-02-04T17:50:46.699Z,3.73
2019-02-04T17:53:15.905Z,3.79
2019-02-04T17:55:44.815Z,3.77
2019-02-04T17:58:13.865Z,3.75
2019-02-04T18:00:49.427Z,3.77
2019-02-04T18:03:18.247Z,3.77
2019-02-04T18:05:47.603Z,3.77
2019-02-04T18:08:16.950Z,3.77
2019-02-04T18:10:46.434Z,3.75
2019-02-04T18:13:15.262Z,3.76
2019-02-04T18:15:44.331Z,3.77
2019-02-04T18:18:13.348Z,3.80
2019-02-04T18:20:42.699Z,3.79
2019-02-04T18:23:11.622Z,4.79
2019-02-04T18:25:40.837Z,4.29
2019-02-04T18:28:09.855Z,3.81
2019-02-04T18:30:38.744Z,3.81
2019-02-04T18:33:07.650Z,3.79
2019-02-04T18:35:37.215Z,3.82
2019-02-04T18:38:06.192Z,3.83
2019-02-04T18:40:35.087Z,3.87
2019-02-04T18:43:04.154Z,3.81
2019-02-04T18:45:33.202Z,3.80
2019-02-04T18:48:02.053Z,3.77
2019-02-04T18:50:31.374Z,3.79
2019-02-04T18:53:00.634Z,3.80
2019-02-04T18:55:32.039Z,3.82
2019-02-04T18:58:01.173Z,3.77
2019-02-04T19:00:30.682Z,3.77
2019-02-04T19:02:59.976Z,3.75
2019-02-04T19:05:29.154Z,3.70
2019-02-04T19:07:58.289Z,3.71
2019-02-04T19:10:27.454Z,3.83
2019-02-04T19:12:56.540Z,3.73
2019-02-04T19:15:25.452Z,3.72
2019-02-04T19:17:57.758Z,3.70
2019-02-04T19:20:26.984Z,3.67
2019-02-04T19:22:56.285Z,3.64
2019-02-04T19:25:25.275Z,3.64
2019-02-04T19:27:54.297Z,3.64
2019-02-04T19:30:26.195Z,3.61
2019-02-04T19:32:55.716Z,3.60
2019-02-04T19:35:24.573Z,3.57
2019-02-04T19:37:53.796Z,3.56
2019-02-04T19:40:22.667Z,3.55
2019-02-04T19:42:51.631Z,3.53
2019-02-04T19:45:20.901Z,3.53
2019-02-04T19:47:50.313Z,3.50
2019-02-04T19:50:24.961Z,3.52
2019-02-04T19:52:53.876Z,3.52
2019-02-04T19:55:27.592Z,3.53
2019-02-04T19:57:56.540Z,3.56
2019-02-04T20:00:25.760Z,3.57
2019-02-04T20:02:57.612Z,3.55
2019-02-04T20:05:26.713Z,3.60
2019-02-04T20:08:02.201Z,3.59
2019-02-04T20:10:33.268Z,3.59
2019-02-04T20:13:03.134Z,3.58
2019-02-04T20:15:32.370Z,3.58
2019-02-04T20:18:01.502Z,3.57
2019-02-04T20:20:30.862Z,3.61
2019-02-04T20:22:59.885Z,3.59
2019-02-04T20:25:29.875Z,3.63
2019-02-04T20:27:58.936Z,3.67
2019-02-04T20:30:29.920Z,3.65
2019-02-04T20:32:58.994Z,3.64
2019-02-04T20:35:27.918Z,3.67
2019-02-04T20:37:57.593Z,3.67
2019-02-04T20:40:26.883Z,3.63
2019-02-04T20:42:56.110Z,3.62
2019-02-04T20:45:25.527Z,3.59
2019-02-04T20:47:55.540Z,3.61
2019-02-04T20:50:29.394Z,3.57
2019-02-04T20:52:58.628Z,3.56
2019-02-04T20:55:27.566Z,3.58
2019-02-04T20:57:57.184Z,3.56
2019-02-04T21:00:27.929Z,3.56
2019-02-04T21:02:57.140Z,3.53
2019-02-04T21:05:26.372Z,3.53
2019-02-04T21:07:55.619Z,3.51
2019-02-04T21:10:25.089Z,3.55
2019-02-04T21:12:57.553Z,3.54
2019-02-04T21:15:26.730Z,3.58
2019-02-04T21:17:55.684Z,3.59
2019-02-04T21:20:25.668Z,3.56
2019-02-04T21:22:55.157Z,3.60
2019-02-04T21:25:24.295Z,3.61
2019-02-04T21:27:53.667Z,3.58
2019-02-04T21:30:27.420Z,3.58
2019-02-04T21:32:57.120Z,3.60
2019-02-04T21:35:26.448Z,3.57
2019-02-04T21:37:56.121Z,3.57
2019-02-04T21:40:25.100Z,3.58
2019-02-04T21:42:54.165Z,3.56
2019-02-04T21:45:23.215Z,3.55
2019-02-04T21:47:52.268Z,3.54
2019-02-04T21:50:23.248Z,3.50
2019-02-04T21:52:52.580Z,3.48
2019-02-04T21:55:22.635Z,3.47
2019-02-04T21:57:51.785Z,3.45
2019-02-04T22:00:25.689Z,3.43
2019-02-04T22:02:54.556Z,3.36
2019-02-04T22:05:25.054Z,3.37
2019-02-04T22:07:54.100Z,3.35
2019-02-04T22:10:24.215Z,3.38
2019-02-04T22:12:53.064Z,3.34
2019-02-04T22:15:22.015Z,3.34
2019-02-04T22:17:51.163Z,3.37
2019-02-04T22:20:20.285Z,3.38
2019-02-04T22:22:49.456Z,3.37
2019-02-04T22:25:20.286Z,3.36
2019-02-04T22:27:49.242Z,3.35
2019-02-04T22:30:20.083Z,3.34
2019-02-04T22:32:49.328Z,3.35
2019-02-04T22:35:18.203Z,3.35
2019-02-04T22:37:47.256Z,3.33
2019-02-04T22:40:18.500Z,3.35
2019-02-04T22:42:47.781Z,3.31
2019-02-04T22:45:16.955Z,3.30
2019-02-04T22:47:46.393Z,3.25
2019-02-04T22:50:20.496Z,3.27
2019-02-04T22:52:49.479Z,3.23
2019-02-04T22:55:18.973Z,3.29
2019-02-04T22:57:48.189Z,3.18
2019-02-04T23:00:44.999Z,3.19
2019-02-04T23:03:15.905Z,3.16
2019-02-04T23:05:45.384Z,3.18
2019-02-04T23:08:14.663Z,3.21
2019-02-04T23:10:43.589Z,3.17
2019-02-04T23:13:12.432Z,3.14
2019-02-04T23:15:41.687Z,3.15
2019-02-04T23:18:11.109Z,3.12
2019-02-04T23:20:40.238Z,3.07
2019-02-04T23:23:09.213Z,3.05
2019-02-04T23:25:43.514Z,3.09
2019-02-04T23:28:08.841Z,3.01
2019-02-04T23:30:38.055Z,3.00
2019-02-04T23:33:10.549Z,3.00
2019-02-04T23:35:39.529Z,2.94
2019-02-04T23:38:08.580Z,2.89
2019-02-04T23:40:37.367Z,2.90
2019-02-04T23:43:06.317Z,2.84
2019-02-04T23:45:35.538Z,2.82
2019-02-04T23:48:05.371Z,2.79
2019-02-04T23:50:34.673Z,2.78
2019-02-04T23:53:03.765Z,2.81
2019-02-04T23:55:32.869Z,2.78
2019-02-04T23:58:02.072Z,2.79
